Time;durP1;ratioP1;P1;durP2;ratioP2;P2;SDS_P1;SDS_P2;PMS_P1;PMS_P2;Temp;Humidity;BMP_temperature;BMP_pressure;BME280_temperature;BME280_humidity;BME280_pressure;Samples;Min_cycle;Max_cycle;Signal;HPM_P1;HPM_P2
2023/10/01 00:00:10;;;;;;;8.60;7.03;;;;;;;13.17;100.00;102414.91;5069687;28;20062;-35
2023/10/01 00:02:36;;;;;;;8.10;6.68;;;;;;;13.07;100.00;102407.19;5069654;28;20039;-35
2023/10/01 00:05:03;;;;;;;9.25;6.80;;;;;;;13.07;100.00;102410.72;5069517;28;20384;-35
2023/10/01 00:07:28;;;;;;;9.50;7.00;;;;;;;13.09;100.00;102405.94;5070055;28;20029;-35
2023/10/01 00:09:54;;;;;;;;;;;;;;;13.20;100.00;102399.03;5058224;28;20036;-35
2023/10/01 00:12:22;;;;;;;11.50;7.18;;;;;;;13.01;100.00;102400.72;5055966;28;19912;-35
2023/10/01 00:14:47;;;;;;;10.45;6.53;;;;;;;13.01;100.00;102402.59;5056199;28;20036;-35
2023/10/01 00:17:13;;;;;;;;;;;;;;;13.13;100.00;102409.06;5056836;28;20033;-35
2023/10/01 00:19:38;;;;;;;8.30;6.38;;;;;;;13.03;100.00;102405.91;5055787;28;19939;-35
2023/10/01 00:22:04;;;;;;;7.65;6.53;;;;;;;13.03;100.00;102409.50;5056655;28;20032;-35
2023/10/01 00:24:29;;;;;;;7.93;6.32;;;;;;;13.16;100.00;102405.91;5055774;28;20021;-36
2023/10/01 00:26:54;;;;;;;8.98;6.53;;;;;;;13.12;100.00;102415.53;5056339;28;20037;-35
2023/10/01 00:29:22;;;;;;;11.85;7.65;;;;;;;13.14;100.00;102403.41;5055645;28;20108;-35
2023/10/01 00:31:49;;;;;;;9.77;6.10;;;;;;;13.13;100.00;102395.50;5056236;28;20029;-35
2023/10/01 00:34:15;;;;;;;9.48;6.90;;;;;;;13.14;100.00;102400.72;5056074;28;20354;-35
2023/10/01 00:36:43;;;;;;;9.02;6.20;;;;;;;13.12;100.00;102397.34;5056572;28;20228;-35
2023/10/01 00:39:09;;;;;;;7.80;6.50;;;;;;;13.01;100.00;102387.13;5056623;28;20052;-35
2023/10/01 00:41:34;;;;;;;;;;;;;;;13.25;100.00;102390.28;5056659;28;20032;-35
2023/10/01 00:44:04;;;;;;;10.18;6.47;;;;;;;13.22;100.00;102393.41;5055955;28;19909;-35
2023/10/01 00:46:31;;;;;;;8.43;6.40;;;;;;;13.13;100.00;102392.78;5056488;28;20032;-35
2023/10/01 00:49:00;;;;;;;8.27;6.60;;;;;;;13.11;100.00;102382.09;5055275;28;20029;-35
2023/10/01 00:51:26;;;;;;;8.50;6.55;;;;;;;13.12;100.00;102383.78;5055194;28;20060;-35
2023/10/01 00:53:52;;;;;;;8.23;6.22;;;;;;;13.08;100.00;102382.53;5056361;28;20060;-35
2023/10/01 00:56:20;;;;;;;;;;;;;;;13.21;100.00;102383.56;5056077;28;20037;-35
2023/10/01 00:58:45;;;;;;;7.57;5.90;;;;;;;13.02;100.00;102377.09;5056543;28;20050;-35
2023/10/01 01:01:13;;;;;;;11.50;6.53;;;;;;;13.04;100.00;102384.00;5055901;28;20469;-35
2023/10/01 01:03:39;;;;;;;8.38;6.03;;;;;;;12.99;100.00;102369.38;5056160;28;20085;-35
2023/10/01 01:06:17;;;;;;;;;;;;;;;13.09;100.00;102376.06;5055720;28;20440;-35
2023/10/01 01:08:47;;;;;;;7.43;6.00;;;;;;;12.84;100.00;102364.19;5055477;28;19909;-35
2023/10/01 01:11:15;;;;;;;6.65;5.32;;;;;;;12.91;100.00;102367.72;5054837;28;20477;-35
2023/10/01 01:13:41;;;;;;;7.57;5.32;;;;;;;12.86;100.00;102359.34;5055159;28;20564;-35
2023/10/01 01:16:07;;;;;;;;;;;;;;;12.99;100.00;102370.22;5055552;28;20074;-35
2023/10/01 01:18:36;;;;;;;9.52;6.00;;;;;;;12.83;100.00;102349.78;5055267;28;20023;-35
2023/10/01 01:21:09;;;;;;;10.25;5.93;;;;;;;12.85;100.00;102365.84;5054190;28;20104;-35
2023/10/01 01:23:35;;;;;;;7.72;5.53;;;;;;;12.83;100.00;102362.47;5055511;28;20073;-35
2023/10/01 01:26:01;;;;;;;6.10;4.82;;;;;;;12.87;100.00;102372.72;5054656;28;20488;-35
2023/10/01 01:28:32;;;;;;;6.78;5.15;;;;;;;12.86;100.00;102371.06;5055465;28;20100;-35
2023/10/01 01:31:03;;;;;;;7.38;5.03;;;;;;;12.77;100.00;102366.03;5055067;28;20032;-35
2023/10/01 01:33:32;;;;;;;7.57;5.03;;;;;;;12.72;100.00;102352.25;5054694;28;20033;-35
2023/10/01 01:36:05;;;;;;;5.85;4.93;;;;;;;12.67;100.00;102349.34;5054692;28;20029;-35
2023/10/01 01:38:34;;;;;;;8.38;4.88;;;;;;;12.86;100.00;102356.66;5055394;28;20036;-35
2023/10/01 01:41:00;;;;;;;7.88;4.85;;;;;;;12.93;100.00;102354.75;5055371;28;20036;-35
2023/10/01 01:43:30;;;;;;;7.07;5.00;;;;;;;12.87;100.00;102361.03;5054513;28;20461;-35
2023/10/01 01:46:00;;;;;;;7.07;4.82;;;;;;;12.77;100.00;102355.19;5054404;28;20033;-35
2023/10/01 01:48:30;;;;;;;8.52;4.68;;;;;;;12.73;100.00;102343.06;5054987;28;20029;-35
2023/10/01 01:50:58;;;;;;;8.77;5.15;;;;;;;12.73;100.00;102349.31;5054353;28;20107;-35
2023/10/01 01:53:34;;;;;;;8.43;4.40;;;;;;;12.73;100.00;102343.06;5054916;28;20377;-35
2023/10/01 01:56:04;;;;;;;7.30;4.80;;;;;;;12.70;100.00;102338.06;5054620;28;20495;-35
2023/10/01 01:58:32;;;;;;;6.38;4.68;;;;;;;12.71;100.00;102339.75;5052994;28;20041;-35
2023/10/01 02:01:01;;;;;;;6.82;4.25;;;;;;;12.63;100.00;102310.91;5055017;28;20092;-35
2023/10/01 02:03:33;;;;;;;5.38;4.30;;;;;;;12.64;100.00;102339.75;5054267;28;20029;-35
2023/10/01 02:05:59;;;;;;;10.07;4.70;;;;;;;12.58;100.00;102338.66;5054427;28;20104;-35
2023/10/01 02:08:24;;;;;;;6.35;4.53;;;;;;;12.56;100.00;102331.81;5054624;28;20029;-35
2023/10/01 02:10:56;;;;;;;6.75;4.72;;;;;;;12.61;100.00;102335.56;5053739;28;20028;-35
2023/10/01 02:13:25;;;;;;;5.35;4.20;;;;;;;12.57;100.00;102337.00;5055147;28;20029;-35
2023/10/01 02:15:51;;;;;;;7.80;4.88;;;;;;;12.55;100.00;102336.41;5053640;28;20032;-35
2023/10/01 02:18:17;;;;;;;;;;;;;;;12.67;100.00;102327.63;5054886;28;20033;-35
2023/10/01 02:20:52;;;;;;;5.85;4.35;;;;;;;12.55;100.00;102328.25;5053800;28;20068;-35
2023/10/01 02:23:32;;;;;;;7.95;4.32;;;;;;;12.47;100.00;102314.88;5053561;28;20074;-35
2023/10/01 02:26:00;;;;;;;6.90;4.82;;;;;;;12.44;100.00;102319.88;5054080;28;20032;-35
2023/10/01 02:28:32;;;;;;;7.18;4.35;;;;;;;12.43;100.00;102315.50;5054050;28;20033;-35
2023/10/01 02:31:00;;;;;;;6.10;4.55;;;;;;;12.41;100.00;102313.00;5053458;28;20036;-35
2023/10/01 02:33:55;;;;;;;8.00;4.63;;;;;;;12.42;100.00;102322.81;5053128;28;20070;-35
2023/10/01 02:36:12;;;;;;;5.57;4.20;;;;;;;12.42;100.00;102324.69;5053569;28;20481;-35
2023/10/01 02:38:45;;;;;;;7.45;4.32;;;;;;;12.35;100.00;102309.25;5053896;28;20085;-35
2023/10/01 02:41:14;;;;;;;7.57;4.70;;;;;;;12.37;100.00;102328.84;5054152;28;20625;-35
2023/10/01 02:43:41;;;;;;;7.68;3.97;;;;;;;12.35;100.00;102328.25;5054098;28;20025;-35
2023/10/01 02:46:12;;;;;;;4.90;3.67;;;;;;;12.35;100.00;102332.84;5053711;28;20048;-35
2023/10/01 02:48:41;;;;;;;6.13;4.10;;;;;;;12.36;100.00;102337.22;5053204;28;20067;-35
2023/10/01 02:51:17;;;;;;;7.35;4.82;;;;;;;12.29;100.00;102326.31;5053697;28;20088;-35
2023/10/01 02:54:04;;;;;;;6.38;4.57;;;;;;;12.29;100.00;102337.19;5053441;28;20033;-36
2023/10/01 02:56:34;;;;;;;5.35;4.28;;;;;;;12.25;100.00;102343.22;5053477;28;20428;-36
2023/10/01 02:59:13;;;;;;;7.97;4.65;;;;;;;12.25;100.00;102335.09;5053142;28;20071;-35
2023/10/01 03:01:45;;;;;;;7.40;4.50;;;;;;;12.17;100.00;102338.00;5053672;28;20033;-35
2023/10/01 03:04:15;;;;;;;6.43;4.60;;;;;;;12.17;100.00;102332.59;5053646;28;20032;-36
2023/10/01 03:06:54;;;;;;;7.85;4.68;;;;;;;12.16;100.00;102331.75;5053308;28;20021;-36
2023/10/01 03:09:29;;;;;;;6.90;4.40;;;;;;;12.16;100.00;102330.91;5053601;28;20377;-35
2023/10/01 03:12:24;;;;;;;8.43;4.32;;;;;;;12.21;100.00;102325.72;5052514;28;20381;-36
2023/10/01 03:14:45;;;;;;;7.63;4.25;;;;;;;12.13;100.00;102326.72;5053188;28;20029;-36
2023/10/01 03:17:17;;;;;;;8.88;4.85;;;;;;;12.13;100.00;102321.31;5053163;28;20394;-36
2023/10/01 03:19:46;;;;;;;6.32;4.47;;;;;;;12.10;100.00;102317.13;5053803;28;20035;-35
2023/10/01 03:22:23;;;;;;;6.45;4.65;;;;;;;12.05;100.00;102325.06;5053379;28;20056;-36
2023/10/01 03:24:49;;;;;;;;;;;;;;;12.21;100.00;102323.00;5054195;28;20075;-36
2023/10/01 03:27:25;;;;;;;6.45;3.95;;;;;;;12.17;100.00;102322.56;5053678;28;19909;-36
2023/10/01 03:30:00;;;;;;;7.97;4.60;;;;;;;11.99;100.00;102315.00;5053174;28;20108;-35
2023/10/01 03:32:29;;;;;;;7.38;4.43;;;;;;;11.99;100.00;102312.28;5053059;28;20025;-36
2023/10/01 03:34:56;;;;;;;6.60;4.45;;;;;;;12.05;100.00;102321.47;5053261;28;20082;-36
2023/10/01 03:37:27;;;;;;;7.88;4.70;;;;;;;11.96;100.00;102309.19;5053173;28;20029;-36
2023/10/01 03:40:04;;;;;;;9.57;4.70;;;;;;;11.97;100.00;102302.72;5053301;28;20065;-36
2023/10/01 03:42:33;;;;;;;9.57;4.10;;;;;;;12.07;100.00;102311.28;5053010;28;20037;-36
2023/10/01 03:47:36;;;;;;;7.57;4.47;;;;;;;11.99;100.00;102308.75;5056847;28;20481;-36
2023/10/01 03:50:03;;;;;;;7.30;4.50;;;;;;;12.13;100.00;102320.47;5057488;28;20057;-36
2023/10/01 03:52:29;;;;;;;8.55;4.20;;;;;;;12.07;100.00;102322.97;5056953;28;20021;-36
2023/10/01 03:57:24;;;;;;;10.73;5.10;;;;;;;12.04;100.00;102312.50;5056762;28;20107;-36
2023/10/01 03:59:53;;;;;;;7.30;4.78;;;;;;;12.07;100.00;102328.38;5056294;28;20032;-36
2023/10/01 04:05:21;;;;;;;7.90;4.78;;;;;;;11.99;100.00;102312.28;5057035;28;20032;-36
2023/10/01 04:07:50;;;;;;;9.15;4.60;;;;;;;12.05;100.00;102308.78;5056150;28;20036;-36
2023/10/01 04:10:21;;;;;;;10.82;5.25;;;;;;;12.01;100.00;102306.69;5056313;28;20393;-36
2023/10/01 04:12:50;;;;;;;7.22;4.78;;;;;;;12.04;100.00;102308.97;5056564;28;20047;-36
2023/10/01 04:15:27;;;;;;;7.00;4.50;;;;;;;12.06;100.00;102312.34;5056555;28;20031;-35
2023/10/01 04:23:36;;;;;;;8.35;5.00;;;;;;;12.20;100.00;102310.47;5056706;28;20071;-36
2023/10/01 04:26:13;;;;;;;6.90;4.80;;;;;;;12.15;100.00;102315.66;5056573;28;20512;-36
2023/10/01 04:28:44;;;;;;;9.40;5.28;;;;;;;12.14;100.00;102311.28;5055999;28;20037;-36
2023/10/01 04:31:14;;;;;;;8.55;4.90;;;;;;;12.22;100.00;102319.25;5056225;28;20032;-36
2023/10/01 04:33:43;;;;;;;6.78;4.53;;;;;;;12.18;100.00;102315.25;5055886;28;20074;-35
2023/10/01 04:36:11;;;;;;;7.93;5.22;;;;;;;12.14;100.00;102311.28;5055820;28;20035;-36
2023/10/01 04:38:37;;;;;;;8.27;4.88;;;;;;;12.19;100.00;102320.47;5055988;28;20102;-36
2023/10/01 04:41:03;;;;;;;8.57;4.97;;;;;;;12.15;100.00;102299.41;5056589;28;20033;-36
2023/10/01 04:43:34;;;;;;;9.85;5.38;;;;;;;12.22;100.00;102311.09;5056555;28;20067;-36
2023/10/01 04:46:08;;;;;;;8.57;4.82;;;;;;;12.20;100.00;102308.59;5055990;28;20116;-36
2023/10/01 04:48:34;;;;;;;7.18;4.75;;;;;;;12.19;100.00;102308.78;5055894;28;20424;-36
2023/10/01 04:51:02;;;;;;;;;;;;;;;12.29;100.00;102310.06;5055975;28;20540;-36
2023/10/01 04:53:28;;;;;;;8.73;5.07;;;;;;;12.20;100.00;102316.75;5055568;28;20278;-36
2023/10/01 04:56:06;;;;;;;10.63;4.55;;;;;;;12.13;100.00;102301.50;5055427;28;20074;-35
2023/10/01 04:58:38;;;;;;;7.30;4.93;;;;;;;12.20;100.00;102324.00;5055838;28;20048;-35
2023/10/01 05:01:06;;;;;;;8.00;4.90;;;;;;;12.14;100.00;102298.56;5055885;28;20449;-36
2023/10/01 05:03:41;;;;;;;9.43;4.97;;;;;;;12.24;100.00;102315.25;5055945;28;20359;-36
2023/10/01 05:06:14;;;;;;;11.55;5.05;;;;;;;12.21;100.00;102318.41;5055854;28;20419;-36
2023/10/01 05:08:40;;;;;;;9.02;5.00;;;;;;;12.19;100.00;102309.63;5055536;28;20431;-35
2023/10/01 05:11:11;;;;;;;8.05;4.95;;;;;;;12.16;100.00;102299.22;5055211;28;20033;-35
2023/10/01 05:13:39;;;;;;;9.52;5.13;;;;;;;12.14;100.00;102306.69;5055119;28;20029;-35
2023/10/01 05:16:06;;;;;;;9.13;5.40;;;;;;;12.15;100.00;102307.53;5054749;28;20071;-35
2023/10/01 05:18:33;;;;;;;7.53;4.78;;;;;;;12.11;100.00;102310.66;5055397;28;20025;-35
2023/10/01 05:21:04;;;;;;;7.22;4.47;;;;;;;12.15;100.00;102321.09;5054868;28;20025;-35
2023/10/01 05:23:30;;;;;;;9.90;5.03;;;;;;;12.08;100.00;102316.50;5054346;28;20469;-36
2023/10/01 05:25:56;;;;;;;7.78;4.63;;;;;;;12.13;100.00;102321.31;5054288;28;20104;-36
2023/10/01 05:28:31;;;;;;;7.38;5.05;;;;;;;11.98;100.00;102305.22;5054568;28;20119;-36
2023/10/01 05:31:08;;;;;;;8.48;5.35;;;;;;;12.12;100.00;102330.47;5055374;28;20533;-36
2023/10/01 05:33:34;;;;;;;10.77;6.05;;;;;;;12.14;100.00;102327.56;5054732;28;20359;-36
2023/10/01 05:36:04;;;;;;;8.25;5.40;;;;;;;12.12;100.00;102325.06;5054082;28;20035;-36
2023/10/01 05:38:34;;;;;;;10.02;5.57;;;;;;;12.07;100.00;102331.09;5054885;28;20040;-36
2023/10/01 05:41:05;;;;;;;9.35;5.22;;;;;;;12.06;100.00;102340.28;5054612;28;20143;-36
2023/10/01 05:43:54;;;;;;;9.57;5.78;;;;;;;12.02;100.00;102346.31;5054490;28;20427;-36
2023/10/01 05:46:22;;;;;;;8.20;5.10;;;;;;;12.07;100.00;102339.22;5054241;28;20462;-36
2023/10/01 05:48:49;;;;;;;8.85;5.32;;;;;;;11.99;100.00;102333.97;5054517;28;20033;-36
2023/10/01 05:51:18;;;;;;;9.75;6.20;;;;;;;11.90;100.00;102321.66;5054060;28;20025;-36
2023/10/01 05:53:44;;;;;;;9.40;5.45;;;;;;;12.00;100.00;102327.50;5054334;28;20111;-36
2023/10/01 05:56:11;;;;;;;;;;;;;;;12.08;100.00;102332.75;5054493;28;20033;-36
2023/10/01 05:58:38;;;;;;;8.93;5.20;;;;;;;12.03;100.00;102329.00;5054637;28;19924;-36
2023/10/01 06:01:13;;;;;;;8.93;5.88;;;;;;;12.01;100.00;102328.38;5053990;28;20029;-36
2023/10/01 06:03:43;;;;;;;8.05;4.90;;;;;;;12.02;100.00;102322.75;5054720;28;20029;-36
2023/10/01 06:06:14;;;;;;;9.57;5.70;;;;;;;12.00;100.00;102330.22;5054074;28;20121;-36
2023/10/01 06:08:49;;;;;;;10.30;6.05;;;;;;;12.00;100.00;102324.81;5054038;28;20029;-36
2023/10/01 06:11:16;;;;;;;9.05;5.65;;;;;;;12.09;100.00;102330.88;5054031;28;20497;-36
2023/10/01 06:13:49;;;;;;;8.48;5.53;;;;;;;11.97;100.00;102314.38;5053717;28;20021;-36
2023/10/01 06:16:23;;;;;;;12.38;6.10;;;;;;;12.13;100.00;102336.75;5053968;28;20029;-36
2023/10/01 06:18:59;;;;;;;8.75;5.35;;;;;;;12.08;100.00;102340.91;5053619;28;20025;-36
2023/10/01 06:21:33;;;;;;;15.30;5.47;;;;;;;12.18;100.00;102329.66;5053879;28;20481;-36
2023/10/01 06:24:04;;;;;;;8.65;5.53;;;;;;;12.22;100.00;102338.22;5054715;28;20362;-36
2023/10/01 06:26:36;;;;;;;10.25;6.13;;;;;;;12.24;100.00;102338.84;5053815;28;20108;-36
2023/10/01 06:29:07;;;;;;;10.40;5.63;;;;;;;12.26;100.00;102334.06;5054584;28;20431;-36
2023/10/01 06:31:48;;;;;;;8.40;5.10;;;;;;;12.30;100.00;102328.03;5054282;28;20075;-36
2023/10/01 06:34:15;;;;;;;9.38;5.45;;;;;;;12.39;100.00;102342.19;5054527;28;20028;-36
2023/10/01 06:36:42;;;;;;;8.82;5.75;;;;;;;12.40;100.00;102338.47;5053523;28;20032;-36
2023/10/01 06:39:13;;;;;;;9.95;5.07;;;;;;;12.49;100.00;102326.38;5053924;28;20476;-36
2023/10/01 06:41:39;;;;;;;8.57;5.90;;;;;;;12.51;100.00;102324.28;5053628;28;20108;-36
2023/10/01 06:44:04;;;;;;;11.27;5.68;;;;;;;12.63;100.00;102321.78;5054114;28;20052;-36
2023/10/01 06:46:30;;;;;;;8.13;5.63;;;;;;;12.68;100.00;102321.97;5053883;28;20029;-36
2023/10/01 06:48:58;;;;;;;10.98;5.68;;;;;;;12.76;100.00;102326.38;5053570;28;20037;-36
2023/10/01 06:51:26;;;;;;;8.45;5.32;;;;;;;12.66;100.00;102296.94;5053135;28;20466;-36
2023/10/01 06:53:59;;;;;;;7.80;5.22;;;;;;;12.86;100.00;102322.19;5054005;28;20028;-36
2023/10/01 06:56:29;;;;;;;8.90;5.38;;;;;;;12.97;100.00;102325.31;5053232;28;20082;-36
2023/10/01 07:01:34;;;;;;;8.07;5.05;;;;;;;13.03;100.00;102310.88;5053488;28;20091;-36
2023/10/01 07:04:05;;;;;;;9.43;5.80;;;;;;;13.15;100.00;102314.63;5053700;28;20037;-36
2023/10/01 07:06:31;;;;;;;11.77;5.68;;;;;;;13.25;100.00;102315.03;5053367;28;20040;-36
2023/10/01 07:09:00;;;;;;;7.78;5.32;;;;;;;13.31;100.00;102310.63;5054185;28;20032;-36
2023/10/01 07:11:28;;;;;;;10.30;5.75;;;;;;;13.39;100.00;102313.97;5053271;28;20043;-36
2023/10/01 07:13:55;;;;;;;9.50;5.85;;;;;;;13.51;100.00;102321.44;5053863;28;20071;-36
2023/10/01 07:16:35;;;;;;;10.07;5.50;;;;;;;13.50;100.00;102317.88;5053208;28;20028;-36
2023/10/01 07:19:11;;;;;;;9.13;5.75;;;;;;;13.64;100.00;102332.28;5055254;28;20075;-36
2023/10/01 07:21:39;;;;;;;8.70;5.75;;;;;;;13.73;100.00;102332.88;5057006;28;20032;-36
2023/10/01 07:24:07;;;;;;;11.30;6.63;;;;;;;13.74;100.00;102329.94;5057245;28;20031;-36
2023/10/01 07:26:36;;;;;;;10.15;5.40;;;;;;;13.87;100.00;102335.31;5057450;28;20377;-36
2023/10/01 07:29:03;;;;;;;10.30;5.63;;;;;;;13.91;100.00;102333.84;5056824;28;20061;-36
2023/10/01 07:31:35;;;;;;;;;;;;;;;14.02;100.00;102328.75;5057267;28;20037;-37
2023/10/01 07:34:01;;;;;;;8.13;4.82;;;;;;;14.05;100.00;102320.97;5057853;28;20012;-36
2023/10/01 07:36:27;;;;;;;10.15;5.60;;;;;;;14.14;100.00;102329.72;5057803;28;20056;-36
2023/10/01 07:38:56;;;;;;;9.40;5.28;;;;;;;14.12;100.00;102313.63;5056850;28;20552;-37
2023/10/01 07:41:24;;;;;;;10.77;5.45;;;;;;;14.28;100.00;102335.91;5057686;28;20061;-36
2023/10/01 07:43:52;;;;;;;9.82;5.82;;;;;;;14.33;100.00;102345.06;5057168;28;20064;-36
2023/10/01 07:46:18;;;;;;;9.13;5.65;;;;;;;14.42;100.00;102342.94;5057034;28;20025;-36
2023/10/01 07:48:47;;;;;;;10.55;5.85;;;;;;;14.51;100.00;102346.25;5057561;28;20036;-36
2023/10/01 07:51:23;;;;;;;8.73;5.93;;;;;;;14.56;100.00;102338.25;5056692;28;20032;-36
2023/10/01 07:53:54;;;;;;;8.05;5.50;;;;;;;14.64;100.00;102336.09;5057022;28;20381;-36
2023/10/01 07:56:23;;;;;;;8.63;5.18;;;;;;;14.79;100.00;102343.94;5057288;28;20040;-36
2023/10/01 07:59:17;;;;;;;9.35;5.93;;;;;;;14.89;100.00;102343.44;5057147;28;20044;-36
2023/10/01 08:01:43;;;;;;;11.05;6.20;;;;;;;14.97;100.00;102339.59;5056500;28;20402;-36
2023/10/01 08:06:57;;;;;;;10.35;5.75;;;;;;;15.18;100.00;102342.72;5056795;28;20452;-36
2023/10/01 08:09:22;;;;;;;8.90;6.25;;;;;;;15.27;100.00;102340.53;5056699;28;20056;-36
2023/10/01 08:12:05;;;;;;;;;;;;;;;15.36;100.00;102341.91;5056705;28;20462;-36
2023/10/01 08:14:34;;;;;;;10.57;6.40;;;;;;;15.44;100.00;102344.31;5057136;28;19944;-37
2023/10/01 08:17:05;;;;;;;10.05;5.72;;;;;;;15.54;100.00;102349.25;5056549;28;20025;-36
2023/10/01 08:19:49;;;;;;;10.85;6.85;;;;;;;15.63;100.00;102355.25;5056240;28;20188;-36
2023/10/01 08:22:22;;;;;;;9.57;6.57;;;;;;;15.69;100.00;102355.19;5056431;28;20029;-36
2023/10/01 08:24:49;;;;;;;10.45;6.05;;;;;;;15.75;100.00;102358.06;5056665;28;20029;-36
2023/10/01 08:27:29;;;;;;;11.75;6.65;;;;;;;15.82;100.00;102358.81;5056083;28;20478;-36
2023/10/01 08:32:41;;;;;;;10.63;6.13;;;;;;;15.84;100.00;102340.31;5056552;28;20489;-36
2023/10/01 08:35:07;;;;;;;9.98;6.28;;;;;;;16.04;100.00;102359.97;5056679;28;20116;-36
2023/10/01 08:37:37;;;;;;;11.50;6.97;;;;;;;16.17;100.00;102369.88;5056094;28;20029;-36
2023/10/01 08:40:13;;;;;;;12.40;6.70;;;;;;;16.26;100.00;102354.03;5055505;28;20036;-36
2023/10/01 08:42:43;;;;;;;11.40;6.72;;;;;;;16.30;100.00;102353.34;5056325;28;20021;-36
2023/10/01 08:45:12;;;;;;;11.27;6.82;;;;;;;16.46;100.00;102358.13;5055988;28;20032;-36
2023/10/01 08:47:38;;;;;;;11.38;6.38;;;;;;;16.40;100.00;102345.41;5055695;28;20052;-36
2023/10/01 08:50:27;;;;;;;10.30;6.25;;;;;;;16.60;100.00;102355.19;5055309;28;20029;-36
2023/10/01 08:53:09;;;;;;;8.85;6.10;;;;;;;16.75;100.00;102357.50;5056110;28;20044;-36
2023/10/01 09:00:49;;;;;;;;;;;;;;;17.05;100.00;102358.22;5056223;28;20083;-36
2023/10/01 09:03:29;;;;;;;11.68;6.53;;;;;;;17.14;100.00;102359.53;5055160;28;19908;-37
2023/10/01 09:06:29;;;;;;;9.90;6.05;;;;;;;17.26;100.00;102348.56;5055053;28;20025;-36
2023/10/01 09:08:54;;;;;;;13.02;7.05;;;;;;;17.32;100.00;102331.22;5054641;28;20478;-37
2023/10/01 09:11:32;;;;;;;10.63;6.63;;;;;;;17.55;100.00;102348.66;5054921;28;20032;-36
2023/10/01 09:16:46;;;;;;;10.27;6.75;;;;;;;17.69;100.00;102342.69;5055124;28;20044;-36
2023/10/01 09:25:16;;;;;;;12.00;6.75;;;;;;;18.12;100.00;102335.06;5050295;28;20478;-36
2023/10/01 09:28:19;;;;;;;12.90;7.40;;;;;;;18.23;100.00;102336.91;5055263;28;20025;-36
2023/10/01 09:33:48;;;;;;;10.38;6.90;;;;;;;18.22;100.00;102324.28;5054876;28;20496;-36
2023/10/01 09:36:33;;;;;;;;;;;;;;;18.31;100.00;102322.81;5055123;28;20065;-36
2023/10/01 09:39:03;;;;;;;13.00;7.78;;;;;;;18.26;100.00;102318.09;5054584;28;19919;-36
2023/10/01 09:41:31;;;;;;;13.02;6.93;;;;;;;18.26;100.00;102312.59;5054331;28;20032;-36
2023/10/01 09:43:58;;;;;;;12.57;7.18;;;;;;;18.31;100.00;102319.25;5054820;28;20422;-36
2023/10/01 09:46:32;;;;;;;13.02;7.10;;;;;;;18.37;100.00;102315.50;5054769;28;20428;-36
2023/10/01 09:49:00;;;;;;;11.85;7.63;;;;;;;18.52;100.00;102329.47;5055053;28;20064;-36
2023/10/01 09:51:31;;;;;;;11.95;7.22;;;;;;;18.59;100.00;102321.06;5054144;28;20021;-36
2023/10/01 09:54:02;;;;;;;11.38;7.35;;;;;;;18.75;100.00;102329.34;5054334;28;20027;-36
2023/10/01 09:56:30;;;;;;;10.40;7.25;;;;;;;18.84;100.00;102331.66;5054623;28;20029;-37
2023/10/01 09:59:03;;;;;;;13.15;6.93;;;;;;;18.93;100.00;102330.16;5053961;28;20110;-37
2023/10/01 10:01:47;;;;;;;13.38;7.22;;;;;;;19.10;100.00;102330.97;5054569;28;20029;-37
2023/10/01 10:04:20;;;;;;;14.20;8.05;;;;;;;19.11;100.00;102331.78;5055010;28;20028;-35
2023/10/01 10:06:59;;;;;;;12.00;7.03;;;;;;;19.27;100.00;102330.91;5054156;28;20040;-35
2023/10/01 10:09:25;;;;;;;11.38;6.93;;;;;;;19.30;100.00;102320.28;5054022;28;20041;-35
2023/10/01 10:11:51;;;;;;;10.93;6.55;;;;;;;19.38;100.00;102315.44;5053964;28;20029;-35
2023/10/01 10:14:28;;;;;;;;;;;;;;;19.59;100.00;102322.84;5054714;28;20481;-35
2023/10/01 10:17:19;;;;;;;10.25;6.80;;;;;;;19.65;100.00;102324.56;5054753;28;20329;-35
2023/10/01 10:23:17;;;;;;;10.75;6.90;;;;;;;19.89;100.00;102318.81;5054155;28;20051;-35
2023/10/01 10:25:44;;;;;;;10.70;6.28;;;;;;;19.92;100.00;102323.81;5053394;28;20339;-35
2023/10/01 10:28:10;;;;;;;10.52;5.95;;;;;;;20.03;100.00;102318.16;5053773;28;20082;-35
2023/10/01 10:30:41;;;;;;;10.85;6.90;;;;;;;20.08;100.00;102320.13;5053739;28;20119;-35
2023/10/01 10:33:15;;;;;;;14.02;6.78;;;;;;;20.13;100.00;102300.94;5054300;28;20029;-35
2023/10/01 10:35:51;;;;;;;12.65;6.30;;;;;;;20.22;100.00;102310.38;5053457;28;20021;-35
2023/10/01 10:38:54;;;;;;;11.13;6.37;;;;;;;20.38;100.00;102314.09;5054434;28;20086;-35
2023/10/01 10:41:25;;;;;;;10.25;5.95;;;;;;;20.38;100.00;102297.59;5053623;28;20252;-35
2023/10/01 10:44:10;;;;;;;10.20;6.20;;;;;;;20.44;100.00;102299.28;5053589;28;20128;-35
2023/10/01 10:47:00;;;;;;;9.95;6.07;;;;;;;20.55;100.00;102303.00;5053817;28;20029;-35
2023/10/01 10:49:53;;;;;;;9.98;6.28;;;;;;;20.62;100.00;102300.84;5053542;28;20064;-35
2023/10/01 10:52:32;;;;;;;11.27;5.72;;;;;;;20.67;100.00;102302.81;5052997;28;20104;-35
2023/10/01 10:55:17;;;;;;;12.10;6.28;;;;;;;20.73;100.00;102299.00;5054241;28;20355;-35
2023/10/01 10:57:49;;;;;;;10.30;6.03;;;;;;;20.80;100.00;102299.63;5053122;28;20053;-35
2023/10/01 11:00:25;;;;;;;9.05;5.70;;;;;;;20.81;100.00;102293.84;5053469;28;20041;-35
2023/10/01 11:02:56;;;;;;;8.32;5.50;;;;;;;20.92;100.00;102296.66;5054201;28;20025;-36
2023/10/01 11:05:33;;;;;;;9.38;5.85;;;;;;;20.99;100.00;102294.50;5053102;28;20029;-36
2023/10/01 11:08:02;;;;;;;10.55;6.18;;;;;;;21.11;100.00;102288.78;5053944;28;20032;-36
2023/10/01 11:10:43;;;;;;;10.27;5.90;;;;;;;21.25;100.00;102290.78;5052889;28;20025;-36
2023/10/01 11:13:13;;;;;;;12.75;6.47;;;;;;;21.34;100.00;102280.16;5053874;28;20032;-36
2023/10/01 11:15:39;;;;;;;10.18;6.43;;;;;;;21.32;100.00;102280.38;5053178;28;20029;-36
2023/10/01 11:18:09;;;;;;;11.75;6.30;;;;;;;21.34;100.00;102278.22;5053761;28;20025;-35
2023/10/01 11:20:36;;;;;;;9.52;5.97;;;;;;;21.46;100.00;102275.22;5052900;28;20053;-36
2023/10/01 11:23:01;;;;;;;9.20;5.93;;;;;;;21.56;100.00;102269.75;5053164;28;20040;-36
2023/10/01 11:25:27;;;;;;;9.32;6.18;;;;;;;21.60;100.00;102270.03;5053430;28;20029;-36
2023/10/01 11:27:54;;;;;;;8.68;5.60;;;;;;;21.65;98.50;102275.56;5053731;28;20043;-36
2023/10/01 11:30:20;;;;;;;9.60;6.38;;;;;;;21.70;97.40;102270.06;5053145;28;20423;-36
2023/10/01 11:32:58;;;;;;;9.30;5.68;;;;;;;21.87;100.00;102261.59;5053060;28;20033;-36
2023/10/01 11:35:34;;;;;;;10.55;6.18;;;;;;;21.87;96.81;102256.09;5053882;28;20048;-36
2023/10/01 11:38:13;;;;;;;8.88;5.63;;;;;;;21.97;96.06;102263.53;5053299;28;20393;-36
2023/10/01 11:43:35;;;;;;;11.10;6.27;;;;;;;22.17;98.54;102254.50;5052817;28;20179;-35
2023/10/01 11:46:23;;;;;;;11.02;5.95;;;;;;;22.21;97.95;102253.66;5053593;28;20266;-36
2023/10/01 11:49:04;;;;;;;9.18;6.00;;;;;;;22.25;96.79;102254.78;5052913;28;20029;-35
2023/10/01 11:52:00;;;;;;;8.45;6.13;;;;;;;22.22;96.15;102241.53;5053176;28;20021;-36
2023/10/01 11:54:52;;;;;;;10.60;6.13;;;;;;;22.32;96.39;102255.31;5052590;28;20036;-36
2023/10/01 11:57:31;;;;;;;9.88;6.10;;;;;;;22.42;94.64;102248.16;5053108;28;20025;-36
2023/10/01 11:59:58;;;;;;;10.63;5.68;;;;;;;22.47;93.80;102239.88;5053511;28;20045;-36
2023/10/01 12:02:32;;;;;;;9.38;6.43;;;;;;;22.43;92.69;102238.75;5052750;28;20063;-36
2023/10/01 12:04:59;;;;;;;10.15;6.60;;;;;;;22.48;94.46;102219.47;5054143;28;20115;-36
2023/10/01 12:07:26;;;;;;;12.23;6.75;;;;;;;22.60;93.52;102228.28;5056407;28;20028;-36
2023/10/01 12:09:54;;;;;;;11.05;7.07;;;;;;;22.56;93.07;102216.97;5056888;28;20377;-36
2023/10/01 12:12:21;;;;;;;9.80;6.13;;;;;;;22.60;93.81;102226.34;5056652;28;20082;-36
2023/10/01 12:14:57;;;;;;;9.13;6.32;;;;;;;22.65;93.17;102222.75;5056227;28;20033;-36
2023/10/01 12:17:27;;;;;;;7.80;5.50;;;;;;;22.60;91.86;102222.78;5056453;28;20029;-36
2023/10/01 12:19:59;;;;;;;10.80;6.78;;;;;;;22.63;91.27;102227.69;5056154;28;20271;-36
2023/10/01 12:22:27;;;;;;;10.55;6.38;;;;;;;22.68;91.38;102218.59;5056197;28;20036;-35